Time;durP1;ratioP1;P1;durP2;ratioP2;P2;SDS_P1;SDS_P2;PMS_P1;PMS_P2;Temp;Humidity;BMP_temperature;BMP_pressure;BME280_temperature;BME280_humidity;BME280_pressure;Samples;Min_cycle;Max_cycle;Signal;HPM_P1;HPM_P2
2023/11/05 00:01:12;;;;;;;0.60;0.57;;;11.00;99.90;;;;;;5050766;28;20183;-87
2023/11/05 00:03:38;;;;;;;0.90;0.70;;;10.90;99.90;;;;;;5053654;28;20294;-87
2023/11/05 00:06:04;;;;;;;0.70;0.60;;;10.90;99.90;;;;;;5054415;28;20177;-87
2023/11/05 00:08:30;;;;;;;5.10;0.75;;;10.90;99.90;;;;;;5055495;28;20181;-87
2023/11/05 00:10:55;;;;;;;1.73;0.70;;;11.20;99.90;;;;;;5056185;28;20186;-87
2023/11/05 00:13:21;;;;;;;0.67;0.53;;;10.80;99.90;;;;;;5057865;28;20277;-87
2023/11/05 00:15:51;;;;;;;0.70;0.60;;;10.70;99.90;;;;;;5050893;28;20272;-87
2023/11/05 00:18:17;;;;;;;0.80;0.60;;;11.30;99.90;;;;;;5068038;28;20199;-87
2023/11/05 00:20:42;;;;;;;1.30;0.80;;;10.80;99.90;;;;;;5049968;28;20256;-87
2023/11/05 00:23:08;;;;;;;0.90;0.50;;;11.00;99.90;;;;;;5053500;28;20682;-87
2023/11/05 00:25:33;;;;;;;2.13;0.93;;;10.70;99.90;;;;;;5050648;28;20711;-87
2023/11/05 00:27:59;;;;;;;0.80;0.60;;;11.30;99.90;;;;;;5052260;28;20184;-87
2023/11/05 00:30:25;;;;;;;0.80;0.60;;;11.00;99.90;;;;;;5054203;28;20193;-87
2023/11/05 00:32:50;;;;;;;0.83;0.70;;;11.30;99.90;;;;;;5054971;28;20207;-87
2023/11/05 00:35:16;;;;;;;0.77;0.60;;;10.90;99.90;;;;;;5053304;28;20177;-87
2023/11/05 00:37:41;;;;;;;0.53;0.47;;;10.80;99.90;;;;;;5056374;28;20214;-87
2023/11/05 00:40:08;;;;;;;0.87;0.50;;;10.90;99.90;;;;;;5065541;28;20206;-87
2023/11/05 00:42:34;;;;;;;0.70;0.50;;;11.20;99.90;;;;;;5074050;28;20195;-86
2023/11/05 00:44:59;;;;;;;1.77;1.27;;;10.80;99.90;;;;;;5079287;28;20194;-87
2023/11/05 00:47:25;;;;;;;0.70;0.50;;;11.10;99.90;;;;;;5077471;28;20293;-87
2023/11/05 00:49:50;;;;;;;0.60;0.50;;;11.00;99.90;;;;;;5059155;28;20194;-87
2023/11/05 00:52:16;;;;;;;1.57;0.50;;;11.30;99.90;;;;;;5057383;28;20256;-87
2023/11/05 00:54:41;;;;;;;1.07;0.80;;;10.90;99.90;;;;;;5053286;28;20675;-87
2023/11/05 00:57:07;;;;;;;0.83;0.70;;;11.40;99.90;;;;;;5052213;28;20188;-87
2023/11/05 00:59:33;;;;;;;0.70;0.50;;;11.30;99.90;;;;;;5054008;28;20211;-87
2023/11/05 01:01:58;;;;;;;1.20;0.50;;;11.00;99.90;;;;;;5068701;28;20192;-87
2023/11/05 01:04:25;;;;;;;1.10;0.67;;;11.10;99.90;;;;;;5061230;28;20242;-87
2023/11/05 01:06:52;;;;;;;0.70;0.60;;;10.80;99.90;;;;;;5052653;28;20202;-87
2023/11/05 01:09:18;;;;;;;0.80;0.50;;;11.30;99.90;;;;;;5068474;28;20199;-87
2023/11/05 01:11:46;;;;;;;0.77;0.60;;;10.90;99.90;;;;;;5069078;28;20187;-87
2023/11/05 01:14:12;;;;;;;1.27;0.60;;;10.60;99.90;;;;;;5062582;28;20219;-87
2023/11/05 01:16:37;;;;;;;0.70;0.60;;;11.00;99.90;;;;;;5062369;28;20269;-87
2023/11/05 01:19:03;;;;;;;1.10;0.73;;;11.50;99.90;;;;;;5066327;28;20259;-87
2023/11/05 01:21:29;;;;;;;0.80;0.50;;;10.90;99.90;;;;;;5058084;28;20198;-88
2023/11/05 01:23:54;;;;;;;1.73;0.60;;;10.90;99.90;;;;;;5052204;28;20333;-87
2023/11/05 01:26:20;;;;;;;0.70;0.60;;;11.20;99.90;;;;;;5058059;28;20628;-87
2023/11/05 01:28:45;;;;;;;0.90;0.60;;;11.10;99.90;;;;;;5051052;28;20197;-87
2023/11/05 01:31:11;;;;;;;1.03;0.70;;;10.90;99.90;;;;;;5053849;28;20190;-87
2023/11/05 01:33:36;;;;;;;0.87;0.57;;;11.50;99.90;;;;;;5058763;28;20199;-87
2023/11/05 01:36:02;;;;;;;0.80;0.60;;;11.40;99.90;;;;;;5053206;28;20179;-87
2023/11/05 01:38:27;;;;;;;1.10;0.70;;;11.00;99.90;;;;;;5059858;28;20187;-87
2023/11/05 01:40:53;;;;;;;1.30;0.50;;;11.40;99.90;;;;;;5070212;28;20226;-88
2023/11/05 01:43:18;;;;;;;1.63;0.60;;;11.10;99.90;;;;;;5084514;28;20246;-87
2023/11/05 01:45:44;;;;;;;1.57;0.70;;;11.10;99.90;;;;;;5062143;28;20298;-87
2023/11/05 01:48:10;;;;;;;0.80;0.60;;;11.00;99.90;;;;;;5060198;28;20200;-87
2023/11/05 01:50:36;;;;;;;2.88;0.60;;;11.50;99.90;;;;;;5056316;28;20643;-87
2023/11/05 01:53:02;;;;;;;1.00;0.50;;;11.60;99.90;;;;;;5070502;28;20203;-88
2023/11/05 01:55:28;;;;;;;1.85;0.63;;;11.10;99.90;;;;;;5047356;28;20199;-88
2023/11/05 01:57:54;;;;;;;1.07;0.50;;;11.30;99.90;;;;;;5056087;28;20180;-88
2023/11/05 02:00:21;;;;;;;0.60;0.53;;;11.10;99.90;;;;;;5047108;28;20247;-88
2023/11/05 02:02:47;;;;;;;2.42;0.85;;;11.10;99.90;;;;;;5055932;28;20463;-88
2023/11/05 02:05:13;;;;;;;0.52;0.40;;;11.20;99.90;;;;;;5051749;28;20182;-88
2023/11/05 02:07:38;;;;;;;1.93;0.70;;;11.70;99.90;;;;;;5055696;28;20187;-87
2023/11/05 02:10:05;;;;;;;0.70;0.60;;;12.10;99.90;;;;;;5057925;28;20199;-88
2023/11/05 02:12:31;;;;;;;2.05;0.70;;;11.30;99.90;;;;;;5058445;28;20178;-87
2023/11/05 02:14:57;;;;;;;0.70;0.63;;;11.30;99.90;;;;;;5050469;28;20273;-88
2023/11/05 02:17:23;;;;;;;1.90;0.70;;;11.40;99.90;;;;;;5069495;28;20432;-87
2023/11/05 02:19:49;;;;;;;1.47;0.70;;;11.20;99.90;;;;;;5057697;28;20299;-88
2023/11/05 02:22:15;;;;;;;1.35;0.70;;;11.50;99.90;;;;;;5061261;28;20191;-88
2023/11/05 02:24:45;;;;;;;1.65;0.60;;;11.80;99.90;;;;;;5071333;28;20675;-88
2023/11/05 02:27:11;;;;;;;1.23;0.55;;;11.50;99.90;;;;;;5056003;28;20551;-88
2023/11/05 02:29:37;;;;;;;0.80;0.47;;;11.40;99.90;;;;;;5053959;28;20183;-88
2023/11/05 02:32:03;;;;;;;0.82;0.60;;;11.90;99.90;;;;;;5049056;28;20278;-88
2023/11/05 02:34:31;;;;;;;1.47;0.80;;;11.30;99.90;;;;;;5055733;28;20818;-88
2023/11/05 02:36:58;;;;;;;1.90;0.80;;;11.50;99.90;;;;;;5080088;28;20441;-88
2023/11/05 02:39:24;;;;;;;2.65;0.70;;;11.90;99.90;;;;;;5053725;28;20277;-87
2023/11/05 02:41:49;;;;;;;2.45;0.70;;;11.60;99.90;;;;;;5045593;28;20552;-87
2023/11/05 02:44:15;;;;;;;2.07;0.60;;;11.60;99.90;;;;;;5058948;28;20205;-88
2023/11/05 02:46:41;;;;;;;0.90;0.60;;;11.70;99.90;;;;;;5059528;28;20184;-87
2023/11/05 02:49:09;;;;;;;2.53;0.70;;;12.20;99.90;;;;;;5053139;28;20249;-88
2023/11/05 02:51:34;;;;;;;3.67;0.85;;;11.60;99.90;;;;;;5054908;28;20196;-87
2023/11/05 02:54:00;;;;;;;1.17;0.70;;;12.10;99.90;;;;;;5054297;28;20211;-87
2023/11/05 02:56:26;;;;;;;2.90;0.60;;;12.10;99.90;;;;;;5051857;28;20435;-88
2023/11/05 02:58:51;;;;;;;0.90;0.70;;;12.00;99.90;;;;;;5054979;28;20188;-88
2023/11/05 03:01:24;;;;;;;1.70;0.90;;;12.00;99.90;;;;;;5050570;28;20184;-88
2023/11/05 03:03:51;;;;;;;1.83;0.75;;;12.20;99.80;;;;;;5044423;28;20203;-87
2023/11/05 03:06:17;;;;;;;3.55;1.30;;;12.30;99.60;;;;;;5052961;28;20189;-87
2023/11/05 03:08:43;;;;;;;0.80;0.70;;;12.10;99.20;;;;;;5052525;28;20187;-88
2023/11/05 03:11:08;;;;;;;1.80;0.80;;;12.20;99.40;;;;;;5064639;28;20439;-88
2023/11/05 03:13:34;;;;;;;2.17;0.80;;;12.10;99.10;;;;;;5074352;28;20225;-88
2023/11/05 03:16:00;;;;;;;1.10;0.70;;;12.40;99.10;;;;;;5088502;28;20215;-88
2023/11/05 03:18:26;;;;;;;1.53;0.97;;;12.20;98.80;;;;;;5068775;28;20205;-88
2023/11/05 03:20:52;;;;;;;1.30;0.70;;;12.20;98.70;;;;;;5078140;28;20276;-88
2023/11/05 03:23:18;;;;;;;1.00;0.70;;;12.10;98.50;;;;;;5072928;28;20208;-88
2023/11/05 03:25:43;;;;;;;2.90;0.70;;;12.70;98.90;;;;;;5079390;28;20184;-88
2023/11/05 03:28:09;;;;;;;2.20;1.13;;;12.00;98.40;;;;;;5057256;28;20184;-88
2023/11/05 03:30:35;;;;;;;2.20;0.80;;;12.10;98.30;;;;;;5055219;28;20220;-88
2023/11/05 03:33:04;;;;;;;1.33;0.80;;;12.20;98.30;;;;;;5056331;28;20216;-88
2023/11/05 03:35:30;;;;;;;2.25;0.63;;;12.40;98.10;;;;;;5052121;28;20752;-89
2023/11/05 03:37:55;;;;;;;2.90;0.70;;;12.10;98.00;;;;;;5052784;28;20212;-89
2023/11/05 03:40:21;;;;;;;1.93;0.70;;;12.70;98.40;;;;;;5055119;28;20297;-89
2023/11/05 03:42:47;;;;;;;1.97;0.80;;;12.00;98.00;;;;;;5060571;28;20196;-88
2023/11/05 03:45:12;;;;;;;1.00;0.63;;;12.10;97.80;;;;;;5053003;28;20646;-88
2023/11/05 03:47:38;;;;;;;1.00;0.70;;;12.40;98.00;;;;;;5060357;28;20235;-89
2023/11/05 03:50:03;;;;;;;3.20;1.00;;;12.50;98.00;;;;;;5054634;28;20212;-89
2023/11/05 03:52:29;;;;;;;1.23;0.70;;;12.30;97.80;;;;;;5084917;28;20199;-89
2023/11/05 03:54:55;;;;;;;3.03;1.00;;;12.10;97.60;;;;;;5083228;28;20189;-89
2023/11/05 03:57:21;;;;;;;2.10;0.70;;;12.30;97.60;;;;;;5061691;28;20195;-89
2023/11/05 03:59:46;;;;;;;2.17;0.80;;;12.80;98.00;;;;;;5063657;28;20503;-89
2023/11/05 04:02:12;;;;;;;1.70;0.73;;;12.40;97.80;;;;;;5045933;28;20444;-84
2023/11/05 04:04:38;;;;;;;4.27;1.03;;;12.80;97.90;;;;;;5059456;28;20201;-84
2023/11/05 04:07:06;;;;;;;2.30;0.90;;;12.80;98.20;;;;;;5055508;28;20422;-89
2023/11/05 04:09:32;;;;;;;1.60;0.90;;;12.40;97.70;;;;;;5060863;28;20184;-91
2023/11/05 04:11:59;;;;;;;0.90;0.70;;;12.80;97.80;;;;;;5071524;28;20188;-88
2023/11/05 04:14:24;;;;;;;1.30;0.70;;;12.50;97.60;;;;;;5084167;28;20220;-89
2023/11/05 04:16:50;;;;;;;1.80;0.80;;;12.70;97.90;;;;;;5066891;28;20192;-89
2023/11/05 04:19:15;;;;;;;1.20;0.60;;;12.40;97.60;;;;;;5074352;28;20464;-89
2023/11/05 04:21:41;;;;;;;1.10;0.60;;;12.60;97.80;;;;;;5068886;28;20189;-90
2023/11/05 04:24:07;;;;;;;0.93;0.80;;;12.30;97.80;;;;;;5050509;28;20216;-90
2023/11/05 04:26:32;;;;;;;1.77;0.80;;;12.20;97.80;;;;;;5055138;28;20192;-90
2023/11/05 04:28:58;;;;;;;1.90;0.73;;;12.50;98.10;;;;;;5056309;28;20192;-90
2023/11/05 04:31:24;;;;;;;2.90;0.90;;;12.10;98.00;;;;;;5090602;28;20188;-90
2023/11/05 04:33:51;;;;;;;2.60;0.90;;;12.00;97.90;;;;;;5080842;28;20212;-89
2023/11/05 04:36:16;;;;;;;1.50;0.90;;;12.20;98.00;;;;;;5077083;28;20195;-90
2023/11/05 04:38:42;;;;;;;2.73;0.87;;;12.40;98.20;;;;;;5066031;28;20185;-89
2023/11/05 04:41:08;;;;;;;1.83;0.70;;;12.30;98.10;;;;;;5070487;28;20272;-89
2023/11/05 04:43:33;;;;;;;2.13;0.70;;;12.20;98.00;;;;;;5085511;28;20177;-89
2023/11/05 04:45:59;;;;;;;3.83;0.83;;;12.70;98.30;;;;;;5074193;28;20194;-88
2023/11/05 04:48:25;;;;;;;1.67;0.80;;;12.70;98.10;;;;;;5078258;28;20227;-88
2023/11/05 04:50:51;;;;;;;2.77;1.03;;;12.40;98.00;;;;;;5084166;28;20449;-87
2023/11/05 04:53:16;;;;;;;1.73;0.80;;;12.10;98.00;;;;;;5072171;28;20458;-87
2023/11/05 04:55:42;;;;;;;2.80;0.70;;;12.10;98.00;;;;;;5054447;28;20570;-88
2023/11/05 04:58:07;;;;;;;2.03;0.80;;;12.50;98.10;;;;;;5048545;28;20181;-88
2023/11/05 05:00:34;;;;;;;1.10;0.70;;;12.40;98.00;;;;;;5056836;28;20211;-87
2023/11/05 05:03:00;;;;;;;1.80;0.80;;;12.30;98.10;;;;;;5050333;28;20225;-87
2023/11/05 05:05:25;;;;;;;2.03;0.80;;;12.30;98.10;;;;;;5050771;28;20184;-87
2023/11/05 05:07:51;;;;;;;1.53;0.60;;;12.80;98.40;;;;;;5049195;28;20212;-87
2023/11/05 05:10:17;;;;;;;3.10;0.90;;;12.40;98.40;;;;;;5051940;28;20344;-88
2023/11/05 05:12:43;;;;;;;3.88;1.00;;;12.60;98.70;;;;;;5051941;28;20582;-89
2023/11/05 05:15:09;;;;;;;1.80;1.00;;;12.30;98.60;;;;;;5050212;28;20185;-88
2023/11/05 05:17:34;;;;;;;3.05;1.00;;;12.20;98.70;;;;;;5046588;28;20182;-89
2023/11/05 05:20:00;;;;;;;1.67;0.60;;;12.30;98.80;;;;;;5054826;28;20208;-89
2023/11/05 05:22:25;;;;;;;0.90;0.70;;;12.00;98.80;;;;;;5050133;28;20237;-88
2023/11/05 05:24:51;;;;;;;2.87;0.60;;;12.00;98.80;;;;;;5054954;28;20265;-88
2023/11/05 05:27:17;;;;;;;4.40;0.80;;;12.50;99.20;;;;;;5057190;28;20230;-89
2023/11/05 05:29:42;;;;;;;1.30;0.90;;;12.20;99.10;;;;;;5050821;28;20173;-88
2023/11/05 05:32:08;;;;;;;1.30;0.60;;;12.20;99.40;;;;;;5060740;28;20180;-86
2023/11/05 05:34:33;;;;;;;2.60;0.60;;;12.30;99.70;;;;;;5059209;28;20208;-88
2023/11/05 05:36:59;;;;;;;2.37;0.90;;;12.10;99.40;;;;;;5057602;28;20180;-89
2023/11/05 05:39:26;;;;;;;0.97;0.60;;;12.20;99.40;;;;;;5057405;28;20827;-89
2023/11/05 05:41:51;;;;;;;1.80;0.60;;;12.60;99.70;;;;;;5054682;28;20225;-87
2023/11/05 05:44:17;;;;;;;1.13;0.87;;;12.10;99.60;;;;;;5056309;28;20250;-88
2023/11/05 05:46:42;;;;;;;0.90;0.60;;;12.40;99.80;;;;;;5049740;28;20184;-87
2023/11/05 05:49:08;;;;;;;1.23;0.60;;;12.00;99.70;;;;;;5051224;28;20553;-87
2023/11/05 05:51:34;;;;;;;1.37;0.80;;;12.00;99.90;;;;;;5050037;28;21028;-88
2023/11/05 05:53:59;;;;;;;1.37;0.50;;;11.90;99.90;;;;;;5049002;28;20458;-87
2023/11/05 05:56:26;;;;;;;2.80;0.93;;;12.00;99.90;;;;;;5050724;28;20565;-87
2023/11/05 05:58:52;;;;;;;1.02;0.55;;;12.40;99.90;;;;;;5062056;28;20188;-87
2023/11/05 06:01:18;;;;;;;0.70;0.60;;;12.30;99.90;;;;;;5073133;28;20239;-86
2023/11/05 06:03:44;;;;;;;1.73;0.80;;;11.80;99.90;;;;;;5056112;28;20611;-87
2023/11/05 06:06:09;;;;;;;0.80;0.50;;;12.00;99.90;;;;;;5045636;28;20275;-87
2023/11/05 06:08:35;;;;;;;0.90;0.80;;;12.20;99.90;;;;;;5065521;28;20199;-89
2023/11/05 06:11:01;;;;;;;0.80;0.63;;;12.20;99.90;;;;;;5047344;28;20192;-88
2023/11/05 06:13:27;;;;;;;0.90;0.70;;;12.40;99.90;;;;;;5057647;28;20227;-88
2023/11/05 06:15:53;;;;;;;1.80;0.82;;;12.00;99.90;;;;;;5049074;28;20276;-88
2023/11/05 06:18:18;;;;;;;1.87;0.70;;;11.40;99.90;;;;;;5052854;28;20670;-87
2023/11/05 06:20:44;;;;;;;1.00;0.80;;;11.90;99.90;;;;;;5056293;28;20215;-88
2023/11/05 06:23:09;;;;;;;2.00;0.90;;;11.90;99.90;;;;;;5045201;28;20306;-88
2023/11/05 06:25:35;;;;;;;1.77;0.67;;;11.90;99.90;;;;;;5045545;28;20278;-88
2023/11/05 06:28:01;;;;;;;0.80;0.50;;;11.80;99.90;;;;;;5044499;28;20268;-88
2023/11/05 06:30:28;;;;;;;0.70;0.60;;;12.30;99.90;;;;;;5047523;28;20267;-87
2023/11/05 06:32:53;;;;;;;0.70;0.50;;;11.80;99.90;;;;;;5058685;28;20287;-88
2023/11/05 06:35:19;;;;;;;0.70;0.50;;;12.20;99.90;;;;;;5060086;28;20212;-87
2023/11/05 06:37:44;;;;;;;1.20;0.80;;;12.10;99.90;;;;;;5058252;28;20192;-87
2023/11/05 06:40:10;;;;;;;1.73;1.00;;;12.20;99.90;;;;;;5054978;28;20204;-88
2023/11/05 06:42:36;;;;;;;0.90;0.60;;;11.90;99.90;;;;;;5058615;28;20180;-88
2023/11/05 06:45:02;;;;;;;0.70;0.50;;;11.90;99.90;;;;;;5061571;28;20500;-88
2023/11/05 06:47:28;;;;;;;2.75;0.98;;;11.80;99.90;;;;;;5060460;28;20184;-88
2023/11/05 06:49:53;;;;;;;1.53;0.70;;;12.10;99.90;;;;;;5056766;28;20216;-87
2023/11/05 06:52:19;;;;;;;1.47;0.70;;;12.40;99.90;;;;;;5059039;28;20192;-87
2023/11/05 06:54:45;;;;;;;3.42;0.88;;;12.30;99.90;;;;;;5067927;28;20289;-88
2023/11/05 06:57:17;;;;;;;2.10;0.80;;;12.10;99.90;;;;;;5056157;28;20176;-87
2023/11/05 06:59:43;;;;;;;1.25;0.70;;;12.50;99.90;;;;;;5058461;28;20196;-88
2023/11/05 07:02:10;;;;;;;0.80;0.73;;;12.30;99.90;;;;;;5056678;28;20184;-88
2023/11/05 07:04:37;;;;;;;1.27;0.60;;;11.90;99.90;;;;;;5049098;28;20197;-88
2023/11/05 07:07:03;;;;;;;0.85;0.63;;;12.20;99.90;;;;;;5049813;28;20258;-89
2023/11/05 07:09:29;;;;;;;0.98;0.50;;;12.00;99.90;;;;;;5060571;28;20188;-89
2023/11/05 07:11:57;;;;;;;3.10;1.37;;;12.30;99.90;;;;;;5057553;28;20299;-89
2023/11/05 07:14:23;;;;;;;0.60;0.50;;;12.30;99.90;;;;;;5065867;28;20204;-89
2023/11/05 07:16:49;;;;;;;0.70;0.70;;;12.50;99.90;;;;;;5063896;28;20196;-87
2023/11/05 07:19:14;;;;;;;0.90;0.60;;;11.90;99.90;;;;;;5052739;28;20446;-89
2023/11/05 07:21:40;;;;;;;2.40;0.60;;;12.30;99.90;;;;;;5044278;28;20224;-88
2023/11/05 07:24:06;;;;;;;0.60;0.50;;;12.20;99.90;;;;;;5081970;28;20211;-89
2023/11/05 07:26:31;;;;;;;0.70;0.50;;;11.90;99.90;;;;;;5061666;28;20221;-87
2023/11/05 07:28:57;;;;;;;0.63;0.50;;;12.10;99.90;;;;;;5054208;28;20221;-87
2023/11/05 07:31:24;;;;;;;0.95;0.52;;;12.30;99.90;;;;;;5045615;28;20188;-87
2023/11/05 07:33:49;;;;;;;1.60;0.80;;;12.30;99.90;;;;;;5061663;28;20211;-88
2023/11/05 07:36:15;;;;;;;1.90;1.20;;;12.20;99.90;;;;;;5058563;28;20181;-88
2023/11/05 07:38:41;;;;;;;0.60;0.43;;;12.20;99.90;;;;;;5064564;28;20213;-88
2023/11/05 07:41:07;;;;;;;1.03;0.67;;;11.90;99.90;;;;;;5076629;28;20236;-88
2023/11/05 07:43:33;;;;;;;0.93;0.60;;;12.20;99.90;;;;;;5075995;28;20197;-87
2023/11/05 07:45:59;;;;;;;0.60;0.50;;;12.30;99.90;;;;;;5072339;28;20178;-88
2023/11/05 07:48:24;;;;;;;0.60;0.50;;;12.70;99.90;;;;;;5080459;28;20216;-88
2023/11/05 07:50:52;;;;;;;1.53;0.60;;;12.50;99.90;;;;;;5072762;28;20189;-87
2023/11/05 09:07:51;;;;;;;;;;;;;;;;;;;;;
2023/11/05 11:39:52;;;;;;;0.80;0.55;;;14.20;99.90;;;;;;5623914;23;20234;-93
2023/11/05 11:42:18;;;;;;;0.70;0.60;;;13.60;99.90;;;;;;5029926;28;20192;-86
2023/11/05 11:44:44;;;;;;;0.82;0.60;;;13.70;99.90;;;;;;5026660;28;20278;-85
2023/11/05 11:47:10;;;;;;;1.23;0.73;;;13.90;99.90;;;;;;5036461;28;20166;-90
2023/11/05 11:49:36;;;;;;;1.13;0.70;;;14.00;99.90;;;;;;5052545;28;20199;-89
2023/11/05 11:52:04;;;;;;;1.97;0.87;;;14.10;99.90;;;;;;5030738;28;20186;-89
2023/11/05 11:54:30;;;;;;;1.80;0.57;;;14.10;99.90;;;;;;5030509;28;20842;-89
2023/11/05 11:56:55;;;;;;;1.30;0.67;;;14.10;99.90;;;;;;5017740;28;20190;-88
2023/11/05 11:59:24;;;;;;;0.70;0.60;;;14.00;99.90;;;;;;5025802;28;20249;-89
2023/11/05 12:01:50;;;;;;;1.10;0.60;;;13.90;99.90;;;;;;5028611;28;20467;-89
2023/11/05 12:04:17;;;;;;;1.17;0.50;;;14.00;99.90;;;;;;5019296;28;20206;-89
2023/11/05 12:06:45;;;;;;;0.80;0.60;;;14.70;99.90;;;;;;5033624;28;20460;-89
2023/11/05 12:09:24;;;;;;;0.80;0.50;;;15.70;99.90;;;;;;5032959;28;20299;-89
2023/11/05 12:11:51;;;;;;;0.95;0.60;;;14.40;99.90;;;;;;5028681;28;20185;-89
2023/11/05 12:14:21;;;;;;;0.85;0.60;;;14.20;99.90;;;;;;5025340;28;20268;-89
2023/11/05 12:16:47;;;;;;;0.70;0.52;;;14.10;99.90;;;;;;5029078;28;20590;-89
2023/11/05 12:19:14;;;;;;;0.60;0.43;;;14.10;99.90;;;;;;5030728;28;20189;-89
2023/11/05 12:21:39;;;;;;;1.15;0.70;;;14.30;99.90;;;;;;5030587;28;20170;-89
2023/11/05 12:24:05;;;;;;;1.10;0.70;;;14.40;99.90;;;;;;5025758;28;20310;-88
2023/11/05 12:26:31;;;;;;;0.80;0.60;;;14.10;99.90;;;;;;5034706;28;20261;-89
2023/11/05 12:28:57;;;;;;;1.07;0.60;;;14.10;99.90;;;;;;5025349;28;20255;-89
2023/11/05 12:31:27;;;;;;;0.80;0.65;;;14.10;99.90;;;;;;5013025;28;20217;-89
2023/11/05 12:33:55;;;;;;;0.70;0.50;;;14.30;99.90;;;;;;5033876;28;20206;-89
2023/11/05 12:36:20;;;;;;;0.85;0.60;;;13.50;99.90;;;;;;5033631;28;20295;-89
2023/11/05 12:38:47;;;;;;;0.67;0.60;;;14.60;99.90;;;;;;5026247;28;20219;-88
2023/11/05 12:41:13;;;;;;;0.85;0.68;;;14.10;99.90;;;;;;5034204;28;20198;-89
2023/11/05 12:43:38;;;;;;;1.30;0.73;;;14.20;99.90;;;;;;5032552;28;20287;-89
2023/11/05 12:46:04;;;;;;;0.80;0.60;;;13.90;99.90;;;;;;5027869;28;20469;-89
2023/11/05 12:48:31;;;;;;;0.80;0.60;;;13.90;99.90;;;;;;5027741;28;20186;-89
2023/11/05 12:50:57;;;;;;;0.68;0.50;;;13.90;99.90;;;;;;5024507;28;20241;-88
2023/11/05 12:53:22;;;;;;;1.05;0.57;;;13.90;99.90;;;;;;5026565;28;20229;-89
2023/11/05 12:56:01;;;;;;;0.80;0.60;;;13.60;99.90;;;;;;5030743;28;20267;-89
2023/11/05 12:58:27;;;;;;;0.70;0.60;;;14.10;99.90;;;;;;5029704;28;20215;-89
2023/11/05 13:00:53;;;;;;;1.53;0.57;;;14.20;99.90;;;;;;5030446;28;20275;-89
2023/11/05 13:03:18;;;;;;;0.63;0.50;;;14.40;99.90;;;;;;5032176;28;20690;-88
2023/11/05 13:05:44;;;;;;;1.10;0.77;;;14.20;99.90;;;;;;5032748;28;20182;-89
2023/11/05 13:08:09;;;;;;;0.60;0.50;;;14.90;99.90;;;;;;5027450;28;20198;-89
2023/11/05 13:10:37;;;;;;;0.90;0.50;;;14.30;99.90;;;;;;5029589;28;20218;-90
2023/11/05 13:13:04;;;;;;;0.75;0.57;;;15.40;99.90;;;;;;5012857;28;20217;-92
2023/11/05 13:15:33;;;;;;;1.25;0.60;;;14.50;99.90;;;;;;5046635;28;20280;-92
2023/11/05 13:17:59;;;;;;;1.33;0.60;;;14.20;99.90;;;;;;5025529;28;20663;-88
2023/11/05 13:20:33;;;;;;;1.30;0.60;;;14.00;99.90;;;;;;5030765;28;20210;-91
2023/11/05 13:25:34;;;;;;;1.40;1.13;;;14.80;99.90;;;;;;5645534;22;20605;-92
2023/11/05 13:27:59;;;;;;;0.80;0.70;;;15.10;99.90;;;;;;5014426;28;20194;-89
2023/11/05 13:30:25;;;;;;;0.60;0.50;;;;;;;;;;5030234;28;20174;-89
2023/11/05 13:38:02;;;;;;;0.80;0.60;;;14.20;99.90;;;;;;5197707;22;20774;-90
2023/11/05 13:40:28;;;;;;;1.20;1.00;;;13.60;99.90;;;;;;5013417;28;20699;-89
2023/11/05 13:42:54;;;;;;;0.90;0.70;;;14.60;99.90;;;;;;5029919;28;20217;-90
2023/11/05 13:45:21;;;;;;;2.20;0.80;;;14.40;99.90;;;;;;5021514;28;20187;-91
2023/11/05 14:01:58;;;;;;;0.80;0.75;;;14.20;99.90;;;;;;5730661;23;20234;-90
2023/11/05 14:04:24;;;;;;;1.07;0.60;;;15.30;99.90;;;;;;5025007;28;20690;-91
2023/11/05 14:06:50;;;;;;;1.85;0.85;;;15.40;99.90;;;;;;5027840;28;20436;-91
2023/11/05 14:09:21;;;;;;;1.23;0.70;;;14.20;99.90;;;;;;5028830;28;20197;-90
2023/11/05 14:11:46;;;;;;;0.70;0.60;;;13.00;99.90;;;;;;5030069;28;20190;-92
2023/11/05 14:14:14;;;;;;;1.53;1.00;;;15.40;99.90;;;;;;5023486;28;20202;-93
2023/11/05 14:16:40;;;;;;;0.70;0.70;;;13.50;99.90;;;;;;5032244;28;20217;-92
2023/11/05 14:19:06;;;;;;;1.00;0.90;;;13.30;99.90;;;;;;5053047;28;20182;-91
2023/11/05 14:21:33;;;;;;;1.48;0.90;;;14.80;99.90;;;;;;5050330;28;20217;-93
2023/11/05 14:24:00;;;;;;;2.00;0.80;;;13.20;99.90;;;;;;5051664;28;20205;-92
2023/11/05 14:26:29;;;;;;;0.70;0.70;;;13.30;99.90;;;;;;5032579;28;20194;-92
2023/11/05 14:28:55;;;;;;;0.70;0.50;;;13.70;99.90;;;;;;5032543;28;20244;-91
2023/11/05 14:31:47;;;;;;;;;;;;;;;;;;;;;
2023/11/05 14:34:17;;;;;;;1.50;1.10;;;13.30;99.90;;;;;;5033507;28;20226;-91
2023/11/05 14:36:43;;;;;;;1.80;0.67;;;13.80;99.90;;;;;;5028478;28;20284;-90
2023/11/05 14:39:09;;;;;;;0.80;0.80;;;12.60;99.90;;;;;;5034886;28;21145;-87
2023/11/05 14:41:37;;;;;;;0.70;0.50;;;12.60;99.90;;;;;;5038358;28;20204;-89
2023/11/05 14:44:04;;;;;;;0.80;0.68;;;14.80;99.90;;;;;;5032101;28;20223;-89
2023/11/05 14:46:29;;;;;;;2.10;0.70;;;13.30;99.90;;;;;;5049829;28;20170;-91
2023/11/05 14:48:55;;;;;;;0.83;0.57;;;12.50;99.90;;;;;;5050854;28;20186;-91
2023/11/05 14:51:21;;;;;;;0.80;0.60;;;15.40;99.90;;;;;;5047028;28;20249;-90
2023/11/05 14:53:47;;;;;;;0.80;0.67;;;15.00;99.90;;;;;;5044928;28;20217;-90
2023/11/05 14:56:14;;;;;;;1.17;0.90;;;13.60;99.90;;;;;;5037225;28;20189;-91
2023/11/05 14:58:40;;;;;;;0.70;0.52;;;13.00;99.90;;;;;;5043437;28;20213;-90
2023/11/05 15:01:06;;;;;;;0.90;0.50;;;14.70;99.90;;;;;;5049090;28;20194;-91
2023/11/05 15:03:32;;;;;;;1.57;0.90;;;13.70;99.90;;;;;;5048070;28;20479;-91
2023/11/05 15:05:58;;;;;;;0.80;0.70;;;14.70;99.90;;;;;;5037370;28;20190;-90
2023/11/05 15:08:24;;;;;;;1.63;0.70;;;13.20;99.90;;;;;;5031776;28;20205;-90
2023/11/05 15:10:49;;;;;;;1.47;0.97;;;14.10;99.90;;;;;;5046656;28;20464;-90
2023/11/05 15:13:15;;;;;;;1.27;0.73;;;12.70;99.90;;;;;;5050097;28;20194;-89
2023/11/05 15:15:41;;;;;;;1.07;0.60;;;12.80;99.90;;;;;;5049911;28;20181;-89
2023/11/05 15:18:06;;;;;;;2.03;1.07;;;12.70;99.90;;;;;;5045895;28;20179;-90
2023/11/05 15:20:32;;;;;;;1.13;0.80;;;12.90;99.90;;;;;;5048324;28;20207;-89
2023/11/05 15:22:58;;;;;;;1.57;1.17;;;12.30;99.90;;;;;;5031860;28;20293;-89
2023/11/05 15:25:23;;;;;;;0.60;0.60;;;12.90;99.90;;;;;;5025028;28;20671;-89
2023/11/05 15:27:49;;;;;;;0.80;0.50;;;13.00;99.90;;;;;;5029260;28;20283;-89
2023/11/05 15:30:14;;;;;;;1.00;0.70;;;12.60;99.90;;;;;;5029451;28;20188;-88
2023/11/05 15:32:41;;;;;;;1.00;0.70;;;12.40;99.90;;;;;;5025354;28;20198;-89
2023/11/05 15:35:07;;;;;;;0.90;0.70;;;12.50;99.90;;;;;;5031215;28;20177;-91
2023/11/05 15:37:33;;;;;;;1.15;0.73;;;12.60;99.90;;;;;;5032821;28;20186;-89
2023/11/05 15:40:00;;;;;;;1.23;0.70;;;12.90;99.90;;;;;;5031940;28;20213;-92
2023/11/05 15:42:36;;;;;;;1.13;0.93;;;12.20;99.90;;;;;;5033606;28;20228;-91
2023/11/05 15:45:03;;;;;;;1.48;1.02;;;12.40;99.90;;;;;;5027331;28;20198;-90
2023/11/05 15:47:46;;;;;;;1.48;0.73;;;12.20;99.90;;;;;;5031428;28;20186;-92
2023/11/05 15:53:26;;;;;;;3.95;1.00;;;12.30;99.90;;;;;;5023784;28;20220;-90
2023/11/05 15:55:52;;;;;;;1.10;0.97;;;11.70;99.90;;;;;;5035191;28;20182;-89
2023/11/05 15:58:17;;;;;;;0.90;0.70;;;12.10;99.90;;;;;;5030718;28;20242;-89
2023/11/05 16:00:43;;;;;;;1.47;1.00;;;11.90;99.90;;;;;;5031634;28;20209;-89
2023/11/05 16:03:09;;;;;;;1.50;1.20;;;12.10;99.90;;;;;;5028596;28;20224;-89
2023/11/05 16:05:47;;;;;;;2.57;1.00;;;12.40;99.90;;;;;;5031780;28;20251;-88
2023/11/05 16:08:14;;;;;;;1.10;0.95;;;12.00;99.90;;;;;;5032512;28;20674;-88
2023/11/05 16:10:40;;;;;;;2.30;1.10;;;12.00;99.90;;;;;;5016143;28;20643;-89
2023/11/05 16:18:16;;;;;;;1.25;1.00;;;12.70;99.90;;;;;;5581844;22;20241;-88
2023/11/05 16:20:42;;;;;;;1.10;1.00;;;13.40;99.90;;;;;;5030592;28;20205;-88
2023/11/05 16:23:09;;;;;;;1.50;1.00;;;14.20;99.90;;;;;;5027087;28;20202;-88
2023/11/05 16:25:35;;;;;;;1.77;1.00;;;13.30;99.90;;;;;;5029773;28;20193;-87
2023/11/05 16:28:00;;;;;;;1.10;0.90;;;13.90;99.90;;;;;;5026704;28;20178;-88
2023/11/05 16:30:26;;;;;;;1.53;1.00;;;11.20;99.90;;;;;;5024862;28;20510;-88
2023/11/05 16:32:52;;;;;;;1.13;0.70;;;11.90;99.90;;;;;;5031697;28;20797;-89
2023/11/05 16:35:17;;;;;;;1.60;1.00;;;12.30;99.90;;;;;;5029423;28;20258;-89
2023/11/05 16:37:43;;;;;;;1.03;0.83;;;14.20;99.90;;;;;;5025231;28;20190;-89
2023/11/05 16:40:12;;;;;;;1.37;0.80;;;13.50;99.90;;;;;;5034202;28;21446;-89
2023/11/05 16:42:37;;;;;;;1.30;0.85;;;12.00;99.90;;;;;;5041259;28;20190;-88
2023/11/05 16:45:05;;;;;;;0.90;0.80;;;11.60;99.90;;;;;;5020541;28;20191;-87
2023/11/05 16:47:32;;;;;;;1.58;0.80;;;11.80;99.90;;;;;;5043010;28;20171;-88
2023/11/05 16:50:18;;;;;;;0.93;0.80;;;12.70;99.90;;;;;;5026173;28;20280;-88
2023/11/05 16:52:44;;;;;;;0.98;0.80;;;11.40;99.90;;;;;;5048846;28;20231;-88
2023/11/05 16:55:10;;;;;;;1.10;0.97;;;13.80;99.90;;;;;;5030224;28;20609;-90
2023/11/05 16:57:43;;;;;;;1.10;1.00;;;;;;;;;;5030935;28;21005;-89
2023/11/05 17:00:10;;;;;;;3.17;1.20;;;11.80;99.90;;;;;;5032667;28;20221;-87